createdAt,value
2023-02-23T00:01:38.426Z,292.95
2023-02-23T00:04:06.929Z,298.20
2023-02-23T00:06:37.493Z,303.23
2023-02-23T00:09:12.170Z,300.43
2023-02-23T00:11:39.813Z,282.42
2023-02-23T00:14:08.212Z,296.15
2023-02-23T00:16:37.422Z,266.00
2023-02-23T00:19:07.986Z,279.03
2023-02-23T00:21:37.327Z,287.10
2023-02-23T00:24:08.296Z,277.75
2023-02-23T00:26:37.355Z,282.52
2023-02-23T00:29:10.265Z,272.77
2023-02-23T00:31:38.593Z,282.83
2023-02-23T00:34:07.558Z,272.92
2023-02-23T00:36:38.765Z,265.27
2023-02-23T00:39:18.916Z,275.20
2023-02-23T00:41:47.352Z,243.32
2023-02-23T00:44:15.894Z,253.43
2023-02-23T00:46:44.550Z,260.88
2023-02-23T00:49:14.057Z,260.55
2023-02-23T00:51:43.648Z,264.70
2023-02-23T00:54:13.808Z,264.05
2023-02-23T00:56:41.889Z,258.83
2023-02-23T00:59:09.980Z,251.27
2023-02-23T01:01:38.487Z,268.33
2023-02-23T01:04:07.409Z,258.00
2023-02-23T01:06:37.483Z,259.00
2023-02-23T01:09:11.125Z,260.55
2023-02-23T01:11:41.325Z,259.30
2023-02-23T01:14:11.239Z,268.63
2023-02-23T01:16:39.442Z,272.63
2023-02-23T01:19:07.826Z,266.73
2023-02-23T01:21:37.227Z,273.25
2023-02-23T01:24:05.901Z,279.55
2023-02-23T01:26:39.446Z,267.40
2023-02-23T01:29:09.351Z,289.38
2023-02-23T01:31:38.699Z,271.25
2023-02-23T01:34:07.416Z,266.45
2023-02-23T01:36:37.206Z,266.88
2023-02-23T01:39:07.610Z,293.13
2023-02-23T01:41:37.687Z,284.08
2023-02-23T01:44:08.794Z,267.67
2023-02-23T01:46:38.999Z,282.55
2023-02-23T01:49:09.885Z,269.98
2023-02-23T01:51:42.919Z,275.48
2023-02-23T01:54:15.824Z,273.95
2023-02-23T01:56:49.249Z,269.80
2023-02-23T01:59:18.710Z,266.83
2023-02-23T02:01:48.129Z,256.98
2023-02-23T02:04:19.414Z,278.25
2023-02-23T02:06:53.337Z,258.85
2023-02-23T02:09:25.616Z,271.27
2023-02-23T02:11:54.995Z,271.43
2023-02-23T02:14:27.745Z,271.60
2023-02-23T02:17:16.008Z,271.38
2023-02-23T02:20:14.950Z,262.10
2023-02-23T02:23:08.328Z,249.38
2023-02-23T02:25:47.372Z,278.03
2023-02-23T02:28:31.052Z,270.45
2023-02-23T02:31:31.219Z,275.20
2023-02-23T02:34:26.012Z,272.50
2023-02-23T02:37:24.813Z,253.17
2023-02-23T02:40:16.253Z,255.13
2023-02-23T02:42:58.245Z,270.65
2023-02-23T02:45:34.986Z,269.00
2023-02-23T02:48:10.051Z,267.20
2023-02-23T02:50:46.335Z,299.93
2023-02-23T02:53:20.974Z,270.70
2023-02-23T02:55:50.204Z,287.40
2023-02-23T02:58:18.757Z,277.35
2023-02-23T03:01:07.535Z,303.40
2023-02-23T03:04:00.558Z,276.80
2023-02-23T03:06:49.519Z,278.17
2023-02-23T03:09:46.609Z,290.08
2023-02-23T03:12:43.875Z,258.77
2023-02-23T03:15:42.667Z,261.65
2023-02-23T03:18:39.625Z,268.45
2023-02-23T03:21:33.833Z,276.70
2023-02-23T03:24:29.690Z,274.88
2023-02-23T03:27:23.435Z,277.63
2023-02-23T03:30:17.553Z,272.37
2023-02-23T03:33:07.983Z,274.67
2023-02-23T03:36:04.135Z,274.95
2023-02-23T03:38:56.385Z,281.50
2023-02-23T03:41:45.276Z,284.33
2023-02-23T03:44:37.680Z,292.42
2023-02-23T03:47:25.497Z,281.27
2023-02-23T03:50:13.125Z,289.08
2023-02-23T03:53:04.327Z,276.10
2023-02-23T03:55:52.856Z,273.80
2023-02-23T03:58:42.628Z,273.33
2023-02-23T04:01:31.306Z,293.63
2023-02-23T04:04:18.074Z,275.00
2023-02-23T04:07:06.356Z,279.00
2023-02-23T04:09:52.198Z,285.27
2023-02-23T04:12:43.838Z,305.17
2023-02-23T04:15:15.268Z,277.50
2023-02-23T04:17:45.425Z,308.63
2023-02-23T04:20:14.645Z,302.73
2023-02-23T04:22:42.349Z,294.58
2023-02-23T04:25:11.823Z,293.30
2023-02-23T04:27:39.727Z,288.63
2023-02-23T04:30:11.672Z,296.75
2023-02-23T04:32:40.042Z,303.90
2023-02-23T04:35:10.487Z,313.67
2023-02-23T04:37:38.938Z,284.27
2023-02-23T04:40:08.073Z,286.67
2023-02-23T04:42:35.718Z,272.10
2023-02-23T04:45:03.424Z,300.30
2023-02-23T04:47:31.088Z,301.47
2023-02-23T04:49:58.767Z,305.60
2023-02-23T04:52:27.883Z,317.52
2023-02-23T04:54:55.598Z,299.05
2023-02-23T04:57:23.251Z,306.80
2023-02-23T04:59:50.901Z,298.42
2023-02-23T05:02:18.611Z,283.88
2023-02-23T05:04:46.288Z,299.83
2023-02-23T05:07:14.480Z,288.13
2023-02-23T05:09:43.590Z,322.08
2023-02-23T05:12:11.246Z,296.95
2023-02-23T05:14:38.914Z,316.75
2023-02-23T05:17:08.583Z,315.40
2023-02-23T05:19:36.477Z,309.10
2023-02-23T05:22:04.470Z,293.15
2023-02-23T05:24:32.173Z,312.97
2023-02-23T05:27:01.123Z,303.90
2023-02-23T05:29:28.728Z,296.30
2023-02-23T05:31:56.557Z,302.45
2023-02-23T05:34:24.575Z,303.10
2023-02-23T05:36:52.219Z,281.80
2023-02-23T05:39:20.092Z,329.20
2023-02-23T05:41:47.714Z,302.95
2023-02-23T05:44:17.195Z,322.52
2023-02-23T05:46:46.417Z,303.77
2023-02-23T05:49:14.587Z,312.73
2023-02-23T05:51:42.418Z,319.85
2023-02-23T05:54:10.540Z,304.55
2023-02-23T05:56:38.172Z,316.42
2023-02-23T05:59:05.951Z,299.80
2023-02-23T06:01:35.022Z,297.73
2023-02-23T06:04:04.504Z,304.67
2023-02-23T06:06:33.093Z,320.02
2023-02-23T06:09:01.681Z,311.35
2023-02-23T06:11:29.511Z,311.48
2023-02-23T06:13:59.278Z,300.55
2023-02-23T06:16:27.773Z,301.13
2023-02-23T06:18:56.984Z,303.00
2023-02-23T06:21:25.067Z,302.73
2023-02-23T06:23:53.354Z,316.08
2023-02-23T06:26:21.534Z,311.50
2023-02-23T06:28:49.322Z,324.60
2023-02-23T06:31:17.444Z,312.80
2023-02-23T06:33:45.742Z,308.60
2023-02-23T06:36:14.803Z,314.17
2023-02-23T06:38:42.463Z,317.02
2023-02-23T06:41:10.314Z,310.90
2023-02-23T06:43:38.299Z,318.37
2023-02-23T06:46:06.470Z,320.60
2023-02-23T06:48:35.389Z,310.45
2023-02-23T06:51:03.089Z,326.40
2023-02-23T06:53:32.257Z,315.50
2023-02-23T06:56:00.171Z,301.70
2023-02-23T06:58:28.778Z,312.48
2023-02-23T07:00:58.519Z,324.58
2023-02-23T07:03:27.206Z,307.55
2023-02-23T07:05:55.015Z,327.25
2023-02-23T07:08:22.797Z,305.67
2023-02-23T07:10:51.967Z,305.70
2023-02-23T07:13:20.395Z,319.25
2023-02-23T07:15:48.093Z,321.03
2023-02-23T07:18:16.232Z,311.77
2023-02-23T07:20:44.004Z,326.55
2023-02-23T07:23:11.762Z,310.85
2023-02-23T07:25:39.464Z,313.52
2023-02-23T07:28:08.628Z,317.73
2023-02-23T07:30:36.523Z,329.35
2023-02-23T07:33:25.126Z,308.60
2023-02-23T07:36:13.302Z,316.75
2023-02-23T07:39:01.299Z,308.65
2023-02-23T07:41:49.443Z,309.67
2023-02-23T07:44:41.506Z,308.40
2023-02-23T07:47:09.965Z,303.50
2023-02-23T07:49:38.174Z,314.75
2023-02-23T07:52:07.123Z,312.85
2023-02-23T07:54:35.844Z,311.33
2023-02-23T07:57:04.382Z,323.95
2023-02-23T07:59:37.116Z,317.48
2023-02-23T08:02:08.514Z,319.58
2023-02-23T08:04:37.481Z,307.75
2023-02-23T08:07:11.709Z,314.23
2023-02-23T08:09:43.891Z,305.55
2023-02-23T08:12:17.083Z,323.80
2023-02-23T08:14:50.068Z,303.58
2023-02-23T08:17:22.221Z,314.48
2023-02-23T08:19:50.492Z,308.88
2023-02-23T08:22:18.790Z,311.63
2023-02-23T08:24:53.380Z,308.13
2023-02-23T08:27:22.142Z,311.15
2023-02-23T08:29:52.837Z,307.63
2023-02-23T08:32:22.602Z,302.10
2023-02-23T08:34:51.227Z,300.83
2023-02-23T08:37:38.254Z,315.10
2023-02-23T08:40:18.918Z,325.48
2023-02-23T08:42:48.721Z,315.55
2023-02-23T08:45:19.964Z,311.38
2023-02-23T08:47:52.256Z,300.60
2023-02-23T08:50:33.009Z,321.98
2023-02-23T08:53:14.551Z,300.63
2023-02-23T08:56:22.686Z,292.00
2023-02-23T08:58:54.366Z,286.23
2023-02-23T09:01:30.037Z,296.15
2023-02-23T09:04:03.172Z,324.45
2023-02-23T09:06:38.434Z,308.33
2023-02-23T09:09:16.846Z,306.33
2023-02-23T09:11:51.156Z,316.15
2023-02-23T09:14:23.024Z,308.17
2023-02-23T09:16:51.997Z,330.20
2023-02-23T09:19:22.852Z,320.95
2023-02-23T09:21:51.425Z,317.80
2023-02-23T09:24:28.791Z,319.75
2023-02-23T09:26:57.037Z,303.80
2023-02-23T09:29:29.324Z,327.38
2023-02-23T09:32:00.652Z,313.95
2023-02-23T09:34:30.967Z,311.95
2023-02-23T09:36:59.497Z,309.90
2023-02-23T09:39:37.736Z,311.17
2023-02-23T09:42:37.752Z,301.60
2023-02-23T09:45:24.342Z,286.45
2023-02-23T09:48:11.053Z,292.35
2023-02-23T09:50:53.284Z,286.63
2023-02-23T09:53:49.973Z,296.75
2023-02-23T09:56:29.708Z,282.38
2023-02-23T09:59:16.713Z,284.92
2023-02-23T10:01:57.707Z,318.08
2023-02-23T10:04:35.803Z,311.50
2023-02-23T10:07:42.027Z,624.13
2023-02-23T10:10:23.901Z,336.77
2023-02-23T10:13:04.088Z,319.60
2023-02-23T10:15:42.680Z,308.23
2023-02-23T10:18:40.549Z,307.75
2023-02-23T10:21:23.166Z,279.88
2023-02-23T10:24:15.641Z,302.48
2023-02-23T10:30:16.288Z,281.25
2023-02-23T10:32:58.781Z,295.58
2023-02-23T10:35:32.075Z,284.13
2023-02-23T10:38:08.949Z,306.08
2023-02-23T10:40:47.838Z,299.52
2023-02-23T10:43:16.823Z,295.13
2023-02-23T10:45:48.216Z,304.63
2023-02-23T10:48:21.028Z,325.67
2023-02-23T10:50:54.191Z,314.20
2023-02-23T10:53:26.679Z,296.70
2023-02-23T10:56:10.776Z,285.05
2023-02-23T10:58:45.092Z,299.80
2023-02-23T11:01:14.614Z,296.48
2023-02-23T11:04:04.344Z,296.65
2023-02-23T11:06:39.584Z,292.45
2023-02-23T11:09:43.366Z,285.23
2023-02-23T11:12:28.557Z,285.83
2023-02-23T11:15:50.993Z,287.38
2023-02-23T11:18:30.198Z,287.42
2023-02-23T11:24:13.150Z,268.80
2023-02-23T11:26:49.956Z,285.20
2023-02-23T11:29:58.205Z,307.27
2023-02-23T11:32:44.137Z,286.08
2023-02-23T11:35:21.416Z,290.30
2023-02-23T11:38:32.604Z,296.35
2023-02-23T11:41:11.565Z,279.33
2023-02-23T11:43:51.576Z,293.73
2023-02-23T11:46:27.837Z,292.33
2023-02-23T11:49:04.330Z,279.92
2023-02-23T11:51:56.380Z,295.20
2023-02-23T11:54:36.497Z,274.02
2023-02-23T11:57:10.929Z,290.95
2023-02-23T11:59:43.280Z,293.10
2023-02-23T12:02:25.002Z,299.30
2023-02-23T12:05:19.981Z,289.52
2023-02-23T12:07:56.053Z,275.42
2023-02-23T12:10:33.549Z,291.65
2023-02-23T12:13:20.966Z,293.13
2023-02-23T12:15:58.962Z,288.42
2023-02-23T12:19:15.878Z,306.00
2023-02-23T12:25:37.601Z,276.58
2023-02-23T12:28:19.202Z,316.15
2023-02-23T12:30:56.083Z,284.35
2023-02-23T12:33:33.966Z,305.35
2023-02-23T12:36:10.313Z,295.27
2023-02-23T12:38:49.777Z,301.52
2023-02-23T12:41:27.798Z,305.08
2023-02-23T12:44:02.029Z,298.77
2023-02-23T12:46:35.744Z,315.67
2023-02-23T12:49:14.201Z,319.20
2023-02-23T12:51:53.773Z,319.13
2023-02-23T12:54:24.417Z,319.35
2023-02-23T12:57:02.577Z,317.83
2023-02-23T13:00:10.006Z,333.92
2023-02-23T13:02:45.617Z,295.15
2023-02-23T13:05:26.873Z,316.80
2023-02-23T13:08:13.465Z,335.00
2023-02-23T13:10:54.106Z,306.88
2023-02-23T13:13:32.200Z,324.67
2023-02-23T13:16:05.134Z,313.55
2023-02-23T13:18:39.262Z,323.25
2023-02-23T13:21:13.899Z,319.27
2023-02-23T13:23:53.178Z,338.33
2023-02-23T13:26:31.724Z,322.38
2023-02-23T13:29:07.227Z,320.35
2023-02-23T13:31:38.021Z,341.23
2023-02-23T13:34:10.485Z,326.95
2023-02-23T13:36:40.749Z,340.70
2023-02-23T13:39:40.845Z,339.42
2023-02-23T13:42:36.383Z,331.98
2023-02-23T13:45:47.300Z,328.55
2023-02-23T13:48:25.342Z,312.58
2023-02-23T13:50:59.148Z,331.23
2023-02-23T13:53:39.662Z,348.75
2023-02-23T13:56:12.334Z,321.27
2023-02-23T13:58:48.330Z,330.02
2023-02-23T14:01:19.497Z,328.10
2023-02-23T14:03:54.680Z,327.95
2023-02-23T14:06:25.810Z,326.58
2023-02-23T14:09:01.095Z,318.95
2023-02-23T14:11:45.704Z,300.95
2023-02-23T14:14:32.829Z,312.33
2023-02-23T14:17:12.580Z,296.77
2023-02-23T14:19:43.471Z,297.92
2023-02-23T14:22:22.208Z,330.90
2023-02-23T14:25:20.744Z,317.88
2023-02-23T14:28:00.431Z,310.38
2023-02-23T14:30:44.837Z,330.02
2023-02-23T14:33:38.380Z,311.05
2023-02-23T14:36:46.820Z,294.27
2023-02-23T14:39:23.584Z,297.60
2023-02-23T14:41:56.904Z,326.48
2023-02-23T14:44:31.357Z,314.65
2023-02-23T14:47:05.621Z,318.85
2023-02-23T14:49:37.124Z,304.83
2023-02-23T14:52:21.154Z,301.70
2023-02-23T14:54:49.770Z,312.08
2023-02-23T14:57:21.298Z,299.38
2023-02-23T14:59:59.233Z,316.73
2023-02-23T15:02:34.318Z,325.55
2023-02-23T15:05:16.237Z,299.77
2023-02-23T15:07:45.867Z,316.98
2023-02-23T15:10:21.234Z,303.45
2023-02-23T15:12:49.483Z,314.23
2023-02-23T15:15:21.138Z,312.00
2023-02-23T15:17:57.147Z,326.05
2023-02-23T15:23:07.227Z,316.88
2023-02-23T15:25:38.939Z,318.88
2023-02-23T15:28:29.529Z,325.35
2023-02-23T15:31:06.443Z,308.55
2023-02-23T15:33:37.476Z,310.10
2023-02-23T15:36:13.624Z,299.13
2023-02-23T15:38:47.508Z,300.17
2023-02-23T15:41:24.608Z,294.40
2023-02-23T15:44:18.570Z,316.95
2023-02-23T15:46:54.109Z,302.08
2023-02-23T15:49:32.524Z,306.92
2023-02-23T15:52:09.382Z,292.00
2023-02-23T15:54:47.049Z,317.35
2023-02-23T15:57:38.641Z,301.67
2023-02-23T16:04:11.514Z,298.50
2023-02-23T16:07:23.023Z,296.85
2023-02-23T16:09:57.126Z,305.52
2023-02-23T16:12:32.021Z,303.95
2023-02-23T16:15:02.484Z,312.85
2023-02-23T16:17:39.317Z,321.73
2023-02-23T16:20:17.356Z,326.10
2023-02-23T16:22:53.555Z,317.98
2023-02-23T16:25:23.066Z,315.75
2023-02-23T16:27:59.600Z,316.67
2023-02-23T16:30:43.228Z,305.75
2023-02-23T16:33:20.606Z,332.88
2023-02-23T16:35:50.961Z,317.35
2023-02-23T16:38:26.439Z,326.67
2023-02-23T16:40:54.998Z,310.30
2023-02-23T16:43:23.128Z,300.25
2023-02-23T16:45:51.405Z,321.83
2023-02-23T16:48:20.160Z,309.92
2023-02-23T16:50:52.072Z,329.05
2023-02-23T16:53:28.174Z,302.40
2023-02-23T16:56:01.677Z,297.35
2023-02-23T16:58:36.140Z,301.77
2023-02-23T17:01:04.988Z,288.92
2023-02-23T17:03:34.312Z,307.55
2023-02-23T17:06:09.832Z,298.75
2023-02-23T17:08:45.949Z,313.98
2023-02-23T17:11:20.817Z,296.48
2023-02-23T17:13:49.496Z,297.70
2023-02-23T17:16:18.038Z,302.85
2023-02-23T17:18:46.436Z,292.52
2023-02-23T17:21:23.647Z,300.17
2023-02-23T17:23:53.809Z,282.63
2023-02-23T17:26:25.222Z,297.70
2023-02-23T17:28:53.919Z,283.33
2023-02-23T17:31:25.615Z,271.77
2023-02-23T17:33:58.329Z,272.98
2023-02-23T17:36:28.402Z,276.90
2023-02-23T17:39:00.522Z,290.38
2023-02-23T17:45:26.677Z,258.42
2023-02-23T17:47:57.615Z,257.40
2023-02-23T17:50:28.288Z,269.05
2023-02-23T17:53:00.529Z,277.27
2023-02-23T17:55:42.632Z,267.30
2023-02-23T17:58:17.751Z,276.83
2023-02-23T18:00:59.547Z,272.00
2023-02-23T18:03:36.262Z,265.92
2023-02-23T18:06:19.899Z,265.23
2023-02-23T18:09:06.070Z,266.70
2023-02-23T18:11:46.035Z,258.33
2023-02-23T18:14:37.720Z,272.17
2023-02-23T18:17:25.251Z,261.52
2023-02-23T18:20:02.542Z,268.02
2023-02-23T18:22:33.966Z,252.25
2023-02-23T18:25:02.889Z,256.25
2023-02-23T18:27:35.650Z,271.30
2023-02-23T18:30:04.403Z,266.20
2023-02-23T18:32:36.981Z,252.82
2023-02-23T18:35:12.287Z,275.85
2023-02-23T18:37:50.268Z,253.35
2023-02-23T18:40:24.223Z,257.98
2023-02-23T18:42:59.622Z,249.30
2023-02-23T18:45:36.582Z,264.60
2023-02-23T18:48:14.051Z,247.73
2023-02-23T18:50:46.370Z,241.25
2023-02-23T18:53:39.626Z,251.10
2023-02-23T18:56:11.912Z,264.73
2023-02-23T18:58:43.244Z,248.60
2023-02-23T19:01:18.467Z,266.20
2023-02-23T19:04:05.605Z,253.70
2023-02-23T19:06:44.116Z,263.27
2023-02-23T19:09:41.380Z,244.95
2023-02-23T19:12:21.944Z,237.80
2023-02-23T19:14:59.293Z,252.90
2023-02-23T19:17:53.732Z,246.25
2023-02-23T19:20:23.191Z,245.57
2023-02-23T19:22:58.453Z,253.15
2023-02-23T19:25:29.086Z,246.45
2023-02-23T19:27:58.068Z,259.10
2023-02-23T19:30:30.759Z,254.95
2023-02-23T19:33:01.925Z,260.35
2023-02-23T19:35:33.269Z,262.77
2023-02-23T19:38:03.761Z,246.40
2023-02-23T19:40:32.436Z,263.80
2023-02-23T19:43:00.623Z,264.42
2023-02-23T19:45:47.695Z,254.75
2023-02-23T19:48:17.677Z,262.48
2023-02-23T19:50:54.728Z,241.93
2023-02-23T19:53:23.222Z,255.82
2023-02-23T19:55:59.932Z,255.60
2023-02-23T19:58:27.973Z,253.90
2023-02-23T20:01:09.148Z,265.20
2023-02-23T20:04:05.091Z,249.45
2023-02-23T20:06:39.923Z,248.35
2023-02-23T20:09:09.806Z,262.35
2023-02-23T20:11:47.014Z,252.00
2023-02-23T20:14:15.697Z,264.45
2023-02-23T20:16:48.755Z,257.85
2023-02-23T20:19:18.085Z,266.05
2023-02-23T20:21:52.662Z,250.18
2023-02-23T20:24:20.986Z,262.10
2023-02-23T20:26:57.305Z,268.50
2023-02-23T20:29:28.046Z,256.85
2023-02-23T20:32:02.741Z,256.15
2023-02-23T20:34:31.310Z,260.48
2023-02-23T20:37:05.174Z,270.38
2023-02-23T20:39:33.575Z,258.15
2023-02-23T20:42:01.852Z,262.33
2023-02-23T20:44:31.384Z,270.50
2023-02-23T20:47:09.989Z,273.40
2023-02-23T20:49:41.737Z,262.65
2023-02-23T20:52:10.233Z,272.27
2023-02-23T20:54:40.064Z,270.65
2023-02-23T20:57:09.326Z,278.75
2023-02-23T20:59:44.381Z,264.90
2023-02-23T21:02:15.383Z,258.70
2023-02-23T21:04:44.537Z,263.73
2023-02-23T21:07:13.814Z,256.92
2023-02-23T21:09:43.030Z,262.23
2023-02-23T21:12:33.163Z,255.85
2023-02-23T21:15:47.089Z,246.18
2023-02-23T21:18:23.199Z,238.07
2023-02-23T21:20:56.793Z,251.93
2023-02-23T21:23:43.651Z,258.75
2023-02-23T21:26:15.765Z,256.23
2023-02-23T21:28:45.521Z,280.50
2023-02-23T21:31:19.208Z,259.30
2023-02-23T21:33:52.576Z,242.48
2023-02-23T21:36:21.271Z,246.57
2023-02-23T21:38:52.253Z,263.02
2023-02-23T21:41:20.941Z,263.70
2023-02-23T21:43:53.389Z,253.20
2023-02-23T21:46:23.126Z,253.10
2023-02-23T21:48:52.272Z,267.00
2023-02-23T21:51:20.734Z,252.03
2023-02-23T21:53:48.514Z,265.95
2023-02-23T21:56:17.850Z,254.52
2023-02-23T21:58:47.700Z,251.32
2023-02-23T22:01:17.225Z,242.20
2023-02-23T22:03:45.638Z,246.57
2023-02-23T22:06:15.676Z,244.10
2023-02-23T22:08:44.791Z,258.45
2023-02-23T22:11:17.175Z,246.77
2023-02-23T22:13:45.753Z,252.20
2023-02-23T22:16:14.398Z,241.35
2023-02-23T22:18:42.394Z,250.55
2023-02-23T22:21:11.626Z,238.10
2023-02-23T22:23:43.406Z,243.25
2023-02-23T22:26:11.266Z,237.25
2023-02-23T22:28:39.200Z,230.98
2023-02-23T22:31:09.167Z,241.05
2023-02-23T22:33:37.342Z,243.73
2023-02-23T22:36:08.017Z,236.52
2023-02-23T22:38:36.023Z,253.93
2023-02-23T22:41:07.299Z,237.73
2023-02-23T22:43:35.139Z,227.40
2023-02-23T22:46:02.914Z,234.25
2023-02-23T22:48:30.553Z,232.07
2023-02-23T22:50:59.577Z,235.93
2023-02-23T22:53:27.737Z,238.20
2023-02-23T22:55:56.554Z,259.80
2023-02-23T22:58:27.006Z,243.38
2023-02-23T23:01:05.754Z,237.18
2023-02-23T23:03:36.009Z,244.95
2023-02-23T23:06:04.676Z,256.75
2023-02-23T23:08:36.405Z,235.00
2023-02-23T23:11:09.262Z,251.65
2023-02-23T23:13:44.476Z,221.90
2023-02-23T23:16:28.920Z,234.57
2023-02-23T23:19:02.250Z,227.20
2023-02-23T23:21:32.698Z,230.18
2023-02-23T23:24:05.481Z,236.00
2023-02-23T23:26:35.123Z,248.27
2023-02-23T23:29:06.078Z,246.50
2023-02-23T23:31:35.820Z,223.38
2023-02-23T23:34:06.576Z,242.18
2023-02-23T23:36:37.196Z,237.27
2023-02-23T23:39:06.700Z,241.80
2023-02-23T23:41:35.288Z,262.30
2023-02-23T23:44:05.199Z,237.47
2023-02-23T23:46:35.526Z,242.73
2023-02-23T23:49:05.994Z,244.05
2023-02-23T23:51:37.398Z,236.40
2023-02-23T23:54:06.497Z,239.23
2023-02-23T23:56:37.152Z,249.37
2023-02-23T23:59:08.125Z,264.60
